»·PEaware :: UAL241 KSAN-KLAX

UAL241 :: KSAN-KLAX

FLIGHT INFORMATION

Flight Status: Arrived
Operator:
United Airlines
More flights by this operator :: More flights under this callsign
Pilot: Ryan H. (12491)
Aircraft: BOEING 737-800
(B738)
More flights by this aircraft type
Origin: KSAN San Diego Intl-Lindbergh
United States
Destination: KLAX Los Angeles Intl
United States
More flights between these airports :: More routes between these airports
Route: +PEBLE6 SLI
File this flight plan on PilotEdge
Remarks:
Altitude:
(Current/Filed)
100ft
Speed:
(Current/Filed)
450kts
Departed: 08-Jun-18 11:41 AM
Arrived: 08-Jun-18 12:09 PM
Distance/Time
Traveled:
95nm/0:28
Distance/Time
To Go:
Arrived

Flight Plot

Page will automatically refresh every two minutes.


Map Options




Map Legend


Flown Route
Filed Route
Departure Airport
Arrival Airport
Navaid (VOR, NDB)
Fix

Horizontal Profiles

Position Reports

Time Latitude Longitude Heading Altitude Ground
Speed
08-Jun-18 11:15 32.732521 -117.205399 171 24ft 0kts
08-Jun-18 11:16 32.732521 -117.205399 171 24ft 0kts
08-Jun-18 11:17 32.732521 -117.205399 171 24ft 0kts
08-Jun-18 11:18 32.732521 -117.205399 171 24ft 0kts
08-Jun-18 11:19 32.732521 -117.205399 171 24ft 0kts
08-Jun-18 11:20 32.732521 -117.205399 171 24ft 0kts
08-Jun-18 11:21 32.732521 -117.205399 171 24ft 0kts
08-Jun-18 11:22 32.732521 -117.205399 171 24ft 0kts
08-Jun-18 11:23 32.732521 -117.205399 171 24ft 0kts
08-Jun-18 11:24 32.732521 -117.205399 171 24ft 0kts
08-Jun-18 11:25 32.732521 -117.205399 171 24ft 0kts
08-Jun-18 11:26 32.732521 -117.205399 171 24ft 0kts
08-Jun-18 11:27 32.732521 -117.205399 171 24ft 0kts
08-Jun-18 11:28 32.732521 -117.205399 171 24ft 0kts
08-Jun-18 11:29 32.732521 -117.205399 171 24ft 0kts
08-Jun-18 11:30 32.732521 -117.205399 171 24ft 0kts
08-Jun-18 11:31 32.732521 -117.205399 171 24ft 0kts
08-Jun-18 11:32 32.732521 -117.205399 171 24ft 0kts
08-Jun-18 11:33 32.732521 -117.205399 171 24ft 0kts
08-Jun-18 11:34 32.732562 -117.205406 170 24ft 2kts
08-Jun-18 11:35 32.733073 -117.205792 124 24ft 0kts
08-Jun-18 11:36 32.735148 -117.205106 37 24ft 19kts
08-Jun-18 11:37 32.734722 -117.198754 105 24ft 25kts
08-Jun-18 11:38 32.732779 -117.190754 105 24ft 28kts
08-Jun-18 11:39 32.730730 -117.182343 105 24ft 24kts
08-Jun-18 11:40 32.729540 -117.176688 70 24ft 0kts
08-Jun-18 11:41 32.730749 -117.177974 286 24ft 44kts
08-Jun-18 11:42 32.745168 -117.222779 304 2722ft 180kts
08-Jun-18 11:43 32.776771 -117.280089 301 5999ft 237kts
08-Jun-18 11:44 32.815738 -117.353582 301 9227ft 278kts
08-Jun-18 11:45 32.863693 -117.440835 312 10001ft 358kts
08-Jun-18 11:46 32.940595 -117.521503 318 9999ft 369kts
08-Jun-18 11:47 33.016888 -117.603372 317 10000ft 368kts
08-Jun-18 11:48 33.089698 -117.688615 305 10000ft 368kts
08-Jun-18 11:49 33.150016 -117.787609 307 9999ft 368kts
08-Jun-18 11:50 33.229751 -117.857555 348 10003ft 371kts
08-Jun-18 11:51 33.329139 -117.889392 342 10000ft 370kts
08-Jun-18 11:52 33.426007 -117.924970 343 9997ft 364kts
08-Jun-18 11:53 33.516219 -117.957705 342 9992ft 318kts
08-Jun-18 11:54 33.589815 -117.984482 343 9286ft 272kts
08-Jun-18 11:55 33.660372 -118.010135 343 7676ft 265kts
08-Jun-18 11:56 33.730094 -118.035496 343 7007ft 262kts
08-Jun-18 11:57 33.796891 -118.060671 338 6987ft 231kts
08-Jun-18 11:58 33.857741 -118.079496 352 6664ft 218kts
08-Jun-18 11:59 33.913075 -118.070471 59 5212ft 214kts
08-Jun-18 12:00 33.926027 -118.005031 49 4261ft 190kts
08-Jun-18 12:01 33.972103 -118.010899 291 3077ft 185kts
08-Jun-18 12:02 33.968936 -118.074753 262 3011ft 206kts
08-Jun-18 12:03 33.961813 -118.143762 262 2999ft 207kts
08-Jun-18 12:04 33.955422 -118.206280 262 2965ft 187kts
08-Jun-18 12:05 33.950073 -118.258567 262 2169ft 142kts
08-Jun-18 12:06 33.945510 -118.302940 262 1490ft 140kts
08-Jun-18 12:07 33.940809 -118.349806 261 737ft 140kts
08-Jun-18 12:08 33.936250 -118.393523 262 136ft 111kts
08-Jun-18 12:09 33.936162 -118.403551 284 136ft 1kts
08-Jun-18 12:10 33.936135 -118.408756 310 136ft 15kts
08-Jun-18 12:11 33.938650 -118.409021 64 136ft 10kts
08-Jun-18 12:12 33.939192 -118.404028 83 136ft 1kts
08-Jun-18 12:13 33.939794 -118.403754 311 136ft 3kts
08-Jun-18 12:14 33.939847 -118.403830 309 136ft 0kts

Navigation Log

Ident Type
Flight plan parsing failed, navigation log unavailable